LOC: 08.12.2016 16:18:49
UTC: 08.12.2016 14:18:49
ilmateenistus.ee keskkonnaagentuur.ee
EETN Tallinn
FTEO31 EETN 081100
TAF EETN 081121Z 0812/0912 27010KT 3000 RA BR OVC003 TEMPO 0812/0816
    VRB02KT 0800 DZ FG VV002 PROB40 TEMPO 0818/0906 1200 DZ BECMG
    0906/0908 6000 NSW BKN008 TEMPO 0909/0912 4000 SHRA BKN006 SCT015CB=

SPECI EETN 081404Z 01004KT 9999 OVC010 03/03 Q0994 R08/290195=
Tallinn
EEKA Kärdla
FCEO32 EETN 081300
TAF EEKA 081300Z 0814/0820 30010KT 3000 BR OVC003 TEMPO 0814/0817
    1000 DZ BR BKN003 OVC005=

METAR EEKA 081350Z 28004KT 3200 BR BKN002 OVC005 05/05 Q0995=
Kärdla
EEKE Kuressaare
METAR EEKE 081350Z 29010KT 250V320 6000 FEW005 BKN008 OVC030 08/07 Q0996=
Kuressaare
EEPU Pärnu
METAR EEPU 081350Z 21003KT 1600 BR OVC004 04/04 Q0994=
Pärnu
EETU Tartu
METAR EETU 081420Z 04003KT 0650 R26/1800D -RA FG VV002 02/01 Q0994=
Tartu

News

Duty Forecaster: 666 0932 aviamet@envir.ee